Time;durP1;ratioP1;P1;durP2;ratioP2;P2;SDS_P1;SDS_P2;PMS_P1;PMS_P2;Temp;Humidity;BMP_temperature;BMP_pressure;BME280_temperature;BME280_humidity;BME280_pressure;Samples;Min_cycle;Max_cycle;Signal;HPM_P1;HPM_P2
2021/01/05 00:02:16;;;;;;;10.45;4.05;;;1.90;99.90;;;;;;5104539;28;20082;-78
2021/01/05 00:04:42;;;;;;;;;;;1.90;99.90;;;;;;5109049;28;20124;-79
2021/01/05 00:07:08;;;;;;;6.90;3.97;;;2.10;99.90;;;;;;5094436;28;20057;-76
2021/01/05 00:09:34;;;;;;;7.18;4.30;;;1.90;99.90;;;;;;5111212;28;20047;-81
2021/01/05 00:12:10;;;;;;;6.72;3.80;;;1.90;99.90;;;;;;5100787;28;20054;-78
2021/01/05 00:14:42;;;;;;;7.93;4.40;;;1.90;99.90;;;;;;5096397;28;20036;-77
2021/01/05 00:17:09;;;;;;;8.77;4.25;;;2.00;99.90;;;;;;5111953;28;20126;-78
2021/01/05 00:19:35;;;;;;;6.85;4.00;;;2.00;99.90;;;;;;5117051;28;20044;-77
2021/01/05 00:22:01;;;;;;;6.60;4.25;;;2.00;99.90;;;;;;5104960;28;20070;-77
2021/01/05 00:24:27;;;;;;;;;;;1.90;99.90;;;;;;5100350;28;20047;-78
2021/01/05 00:26:53;;;;;;;9.38;4.43;;;1.90;99.90;;;;;;5105135;28;19916;-78
2021/01/05 00:29:19;;;;;;;6.78;4.40;;;2.00;99.90;;;;;;5105719;28;20039;-78
2021/01/05 00:31:45;;;;;;;;;;;1.90;99.90;;;;;;5102610;28;20036;-78
2021/01/05 00:34:11;;;;;;;6.30;4.43;;;2.00;99.90;;;;;;5092637;28;19916;-79
2021/01/05 00:36:38;;;;;;;7.28;4.80;;;1.90;99.90;;;;;;5101574;28;20036;-79
2021/01/05 00:39:05;;;;;;;6.95;4.97;;;1.90;99.90;;;;;;5101208;28;20115;-77
2021/01/05 00:41:32;;;;;;;9.05;4.63;;;1.90;99.90;;;;;;5092533;28;20089;-82
2021/01/05 00:43:57;;;;;;;;;;;1.90;99.90;;;;;;5104448;28;20476;-79
2021/01/05 00:46:23;;;;;;;8.75;4.43;;;2.00;99.90;;;;;;5103480;28;19916;-78
2021/01/05 00:48:49;;;;;;;7.28;4.20;;;2.00;99.90;;;;;;5096059;28;20039;-77
2021/01/05 00:51:16;;;;;;;7.32;4.50;;;2.00;99.90;;;;;;5092366;28;20040;-80
2021/01/05 00:53:42;;;;;;;8.20;4.75;;;2.00;99.90;;;;;;5094134;28;20115;-75
2021/01/05 00:56:09;;;;;;;8.68;3.63;;;2.00;99.90;;;;;;5104352;28;20036;-80
2021/01/05 00:58:36;;;;;;;8.68;4.35;;;2.00;99.90;;;;;;5097159;28;20047;-79
2021/01/05 01:01:02;;;;;;;7.68;4.07;;;2.00;99.90;;;;;;5106812;28;20028;-80
2021/01/05 01:03:28;;;;;;;;;;;2.10;99.90;;;;;;5115755;28;20095;-80
2021/01/05 01:05:54;;;;;;;10.90;4.00;;;2.10;99.90;;;;;;5099131;28;19999;-77
2021/01/05 01:08:20;;;;;;;7.90;4.18;;;2.10;99.90;;;;;;5110710;28;20056;-78
2021/01/05 01:10:47;;;;;;;7.95;4.15;;;2.10;99.90;;;;;;5095797;28;20046;-79
2021/01/05 01:13:14;;;;;;;8.45;3.63;;;2.10;99.90;;;;;;5108689;28;20031;-79
2021/01/05 01:15:41;;;;;;;7.13;4.07;;;2.10;99.90;;;;;;5091448;28;20040;-80
2021/01/05 01:18:07;;;;;;;9.23;4.15;;;2.10;99.90;;;;;;5094512;28;20064;-77
2021/01/05 01:20:33;;;;;;;7.55;4.07;;;2.20;99.90;;;;;;5101545;28;20066;-78
2021/01/05 01:23:00;;;;;;;9.30;4.00;;;2.10;99.90;;;;;;5110762;28;20043;-76
2021/01/05 01:25:26;;;;;;;6.68;3.72;;;2.10;99.90;;;;;;5109001;28;20043;-80
2021/01/05 01:27:52;;;;;;;8.18;3.92;;;2.10;99.90;;;;;;5091558;28;20048;-77
2021/01/05 01:30:19;;;;;;;6.78;4.15;;;2.10;99.90;;;;;;5096849;28;20039;-78
2021/01/05 01:32:46;;;;;;;9.80;4.15;;;2.10;99.90;;;;;;5102840;28;20334;-80
2021/01/05 01:35:13;;;;;;;8.05;3.83;;;2.00;99.90;;;;;;5091971;28;20036;-80
2021/01/05 01:37:38;;;;;;;7.47;3.90;;;2.00;99.90;;;;;;5091473;28;20089;-77
2021/01/05 01:40:07;;;;;;;7.90;5.03;;;2.00;99.90;;;;;;5092502;28;20044;-80
2021/01/05 01:42:33;;;;;;;6.50;4.18;;;2.00;99.90;;;;;;5095446;28;20047;-80
2021/01/05 01:44:59;;;;;;;8.98;4.60;;;2.00;99.90;;;;;;5094831;28;20044;-77
2021/01/05 01:47:29;;;;;;;5.22;3.15;;;2.00;99.90;;;;;;5109002;28;20040;-81
2021/01/05 01:49:59;;;;;;;7.25;4.32;;;2.00;99.90;;;;;;5106928;28;20035;-81
2021/01/05 01:53:03;;;;;;;10.20;4.70;;;2.00;99.90;;;;;;5094971;28;20042;-79
2021/01/05 01:55:37;;;;;;;6.40;3.92;;;2.10;99.90;;;;;;5107935;28;20089;-78
2021/01/05 01:58:09;;;;;;;8.30;4.30;;;2.10;99.90;;;;;;5115221;28;20035;-76
2021/01/05 02:00:51;;;;;;;6.03;4.38;;;2.10;99.90;;;;;;5116862;28;20107;-80
2021/01/05 02:03:23;;;;;;;9.48;4.70;;;2.10;99.90;;;;;;5100275;28;20048;-78
2021/01/05 02:06:13;;;;;;;8.27;3.90;;;2.10;99.90;;;;;;5108744;28;20040;-76
2021/01/05 02:09:02;;;;;;;11.07;4.53;;;2.10;99.90;;;;;;5095676;28;20131;-81
2021/01/05 02:11:27;;;;;;;7.50;4.40;;;2.10;99.90;;;;;;5104088;28;20153;-79
2021/01/05 02:14:20;;;;;;;8.82;4.65;;;2.10;99.90;;;;;;5095288;28;20123;-79
2021/01/05 02:17:22;;;;;;;10.50;4.85;;;2.20;99.90;;;;;;5100466;28;20032;-79
2021/01/05 02:20:03;;;;;;;8.65;4.60;;;2.10;99.90;;;;;;5102576;28;20056;-78
2021/01/05 02:22:54;;;;;;;8.88;5.07;;;2.10;99.90;;;;;;5095271;28;20032;-82
2021/01/05 02:25:46;;;;;;;8.38;4.72;;;2.10;99.90;;;;;;5102840;28;20036;-81
2021/01/05 02:28:14;;;;;;;15.55;5.20;;;2.10;99.90;;;;;;5094055;28;20043;-79
2021/01/05 02:30:47;;;;;;;10.15;5.43;;;2.10;99.90;;;;;;5095288;28;20037;-78
2021/01/05 02:33:22;;;;;;;10.43;5.43;;;2.10;99.90;;;;;;5094465;28;20811;-79
2021/01/05 02:36:09;;;;;;;10.80;5.70;;;2.10;99.90;;;;;;5113025;28;20077;-78
2021/01/05 02:39:02;;;;;;;10.27;5.55;;;2.10;99.90;;;;;;5103392;27;20489;-80
2021/01/05 02:41:39;;;;;;;9.73;6.10;;;2.20;99.90;;;;;;5106245;28;20366;-77
2021/01/05 02:44:44;;;;;;;9.70;6.35;;;2.20;99.90;;;;;;5107105;28;20032;-78
2021/01/05 02:47:23;;;;;;;9.88;5.60;;;2.20;99.90;;;;;;5097527;28;20082;-79
2021/01/05 02:50:19;;;;;;;12.00;6.20;;;2.20;99.90;;;;;;5094063;28;20032;-79
2021/01/05 02:53:36;;;;;;;9.73;5.45;;;2.20;99.90;;;;;;5096457;28;20028;-79
2021/01/05 02:56:40;;;;;;;10.68;5.22;;;2.20;99.90;;;;;;5088985;28;20052;-78
2021/01/05 02:59:33;;;;;;;9.40;5.20;;;2.20;99.90;;;;;;5099161;28;20047;-78
2021/01/05 03:02:21;;;;;;;11.10;5.13;;;2.30;99.90;;;;;;5094869;28;20064;-79
2021/01/05 03:04:46;;;;;;;;;;;2.30;99.90;;;;;;5104465;28;20360;-77
2021/01/05 03:07:16;;;;;;;8.48;5.15;;;2.30;99.90;;;;;;5104139;28;20010;-78
2021/01/05 03:09:54;;;;;;;11.65;6.05;;;2.30;99.90;;;;;;5093309;28;20044;-78
2021/01/05 03:12:20;;;;;;;9.73;5.40;;;2.30;99.90;;;;;;5110983;28;20036;-78
2021/01/05 03:15:15;;;;;;;8.52;4.90;;;2.30;99.90;;;;;;5103294;28;20518;-78
2021/01/05 03:17:50;;;;;;;11.68;5.07;;;2.30;99.90;;;;;;5101769;28;20106;-79
2021/01/05 03:20:29;;;;;;;7.25;4.18;;;2.30;99.90;;;;;;5097961;28;20538;-79
2021/01/05 03:23:03;;;;;;;7.32;4.93;;;2.40;99.90;;;;;;5096384;28;20101;-78
2021/01/05 03:25:34;;;;;;;12.18;5.45;;;2.40;99.90;;;;;;5107117;28;20112;-76
2021/01/05 03:28:02;;;;;;;8.60;5.35;;;2.40;99.90;;;;;;5114217;28;20051;-77
2021/01/05 03:30:35;;;;;;;9.23;4.90;;;2.40;99.90;;;;;;5099537;28;20039;-75
2021/01/05 03:33:01;;;;;;;13.88;5.50;;;2.40;99.90;;;;;;5093568;28;20047;-78
2021/01/05 03:35:27;;;;;;;8.13;5.00;;;2.40;99.90;;;;;;5095204;28;20470;-78
2021/01/05 03:37:57;;;;;;;11.88;5.28;;;2.40;99.90;;;;;;5096713;28;20044;-78
2021/01/05 03:40:23;;;;;;;7.13;4.65;;;2.40;99.90;;;;;;5100666;28;20127;-77
2021/01/05 03:42:49;;;;;;;10.65;5.25;;;2.40;99.90;;;;;;5106540;28;20118;-75
2021/01/05 03:45:25;;;;;;;11.13;6.07;;;2.40;99.90;;;;;;5095704;28;20115;-80
2021/01/05 03:47:51;;;;;;;7.53;5.13;;;2.40;99.90;;;;;;5092432;28;20040;-78
2021/01/05 03:50:17;;;;;;;13.65;5.00;;;2.40;99.90;;;;;;5091941;28;20047;-76
2021/01/05 03:52:44;;;;;;;7.57;4.97;;;2.40;99.90;;;;;;5093153;28;20047;-77
2021/01/05 03:55:12;;;;;;;6.82;4.47;;;2.40;99.90;;;;;;5101119;28;20074;-80
2021/01/05 03:57:38;;;;;;;9.38;4.70;;;2.40;99.90;;;;;;5103013;28;20040;-79
2021/01/05 04:00:09;;;;;;;8.27;4.10;;;2.40;99.90;;;;;;5101584;27;20031;-75
2021/01/05 04:02:35;;;;;;;7.50;4.93;;;2.40;99.90;;;;;;5108299;28;20032;-78
2021/01/05 04:05:02;;;;;;;8.25;4.03;;;2.40;99.90;;;;;;5088999;28;20047;-78
2021/01/05 04:07:28;;;;;;;7.78;4.40;;;2.40;99.90;;;;;;5096070;28;20066;-79
2021/01/05 04:09:54;;;;;;;7.50;4.35;;;2.40;99.90;;;;;;5095923;28;20043;-78
2021/01/05 04:12:20;;;;;;;6.13;4.50;;;2.40;99.90;;;;;;5135331;27;21124;-77
2021/01/05 04:14:46;;;;;;;8.18;3.90;;;2.50;99.90;;;;;;5099408;28;20036;-77
2021/01/05 04:17:12;;;;;;;8.50;4.35;;;2.50;99.90;;;;;;5092631;28;20038;-76
2021/01/05 04:19:38;;;;;;;;;;;2.50;99.90;;;;;;5110435;28;20508;-76
2021/01/05 04:22:04;;;;;;;7.82;4.63;;;2.40;99.90;;;;;;5096598;28;19915;-79
2021/01/05 04:24:29;;;;;;;10.75;4.65;;;2.40;99.90;;;;;;5101927;28;20556;-77
2021/01/05 04:26:56;;;;;;;;;;;2.40;99.90;;;;;;5096634;28;20484;-77
2021/01/05 04:29:21;;;;;;;8.13;3.80;;;2.40;99.90;;;;;;5092065;28;19930;-79
2021/01/05 04:31:48;;;;;;;6.55;4.18;;;2.40;99.90;;;;;;5092474;28;20369;-80
2021/01/05 04:34:14;;;;;;;;;;;2.40;99.90;;;;;;5098330;28;20042;-80
2021/01/05 04:36:40;;;;;;;8.68;4.13;;;2.40;99.90;;;;;;5092695;28;20368;-79
2021/01/05 04:39:08;;;;;;;9.40;4.97;;;2.40;99.90;;;;;;5115418;27;20072;-81
2021/01/05 04:41:54;;;;;;;10.13;4.47;;;2.40;99.90;;;;;;5100789;28;20040;-82
2021/01/05 04:44:24;;;;;;;9.68;4.40;;;2.40;99.90;;;;;;5096086;28;20100;-81
2021/01/05 04:47:00;;;;;;;7.55;4.47;;;2.40;99.90;;;;;;5110599;28;20056;-77
2021/01/05 04:50:08;;;;;;;10.05;4.95;;;2.40;99.90;;;;;;5096057;28;20056;-79
2021/01/05 04:52:57;;;;;;;11.23;5.25;;;2.50;99.90;;;;;;5101182;28;20423;-78
2021/01/05 04:56:01;;;;;;;9.38;4.40;;;2.40;99.90;;;;;;5098403;28;20085;-80
2021/01/05 04:58:55;;;;;;;6.60;3.90;;;2.40;99.90;;;;;;5087928;28;20381;-78
2021/01/05 05:01:33;;;;;;;9.57;4.75;;;2.50;99.90;;;;;;5097170;28;20060;-80
2021/01/05 05:04:15;;;;;;;8.32;4.57;;;2.50;99.90;;;;;;5104524;28;20031;-78
2021/01/05 05:06:54;;;;;;;8.20;4.28;;;2.50;99.90;;;;;;5098991;28;20089;-77
2021/01/05 05:09:45;;;;;;;8.35;4.35;;;2.50;99.90;;;;;;5089513;28;20110;-80
2021/01/05 05:12:23;;;;;;;9.63;4.28;;;2.50;99.90;;;;;;5108284;28;20036;-80
2021/01/05 05:14:58;;;;;;;7.82;4.63;;;2.50;99.90;;;;;;5097508;28;20074;-79
2021/01/05 05:17:32;;;;;;;8.32;4.47;;;2.50;99.90;;;;;;5103909;28;20111;-78
2021/01/05 05:20:19;;;;;;;6.47;4.18;;;2.50;99.90;;;;;;5100245;28;20079;-80
2021/01/05 05:23:12;;;;;;;9.27;4.32;;;2.40;99.90;;;;;;5114508;28;20384;-79
2021/01/05 05:25:50;;;;;;;7.40;3.97;;;2.40;99.90;;;;;;5095889;28;20063;-78
2021/01/05 05:28:24;;;;;;;8.20;4.47;;;2.40;99.90;;;;;;5102049;28;20058;-79
2021/01/05 05:30:51;;;;;;;6.78;3.80;;;2.40;99.90;;;;;;5107507;27;20426;-75
2021/01/05 05:33:25;;;;;;;12.85;4.82;;;2.40;99.90;;;;;;5097851;28;20445;-79
2021/01/05 05:36:03;;;;;;;9.40;3.97;;;2.40;99.90;;;;;;5099189;28;20032;-77
2021/01/05 05:38:43;;;;;;;8.25;4.38;;;2.40;99.90;;;;;;5107783;28;20111;-78
2021/01/05 05:41:33;;;;;;;7.25;5.00;;;2.40;99.90;;;;;;5101374;28;20044;-77
2021/01/05 05:44:22;;;;;;;6.22;3.60;;;2.30;99.90;;;;;;5104967;28;21778;-80
2021/01/05 05:46:57;;;;;;;7.20;4.25;;;2.30;99.90;;;;;;5100171;28;20043;-79
2021/01/05 05:49:51;;;;;;;7.95;4.05;;;2.30;99.90;;;;;;5098998;28;20393;-76
2021/01/05 05:52:26;;;;;;;6.50;3.92;;;2.30;99.90;;;;;;5097608;28;20043;-76
2021/01/05 05:54:54;;;;;;;10.57;4.72;;;2.30;99.90;;;;;;5102133;28;20400;-77
2021/01/05 05:57:35;;;;;;;7.47;4.75;;;2.30;99.90;;;;;;5095599;28;20464;-77
2021/01/05 06:00:14;;;;;;;8.20;4.55;;;2.30;99.90;;;;;;5106545;27;20488;-78
2021/01/05 06:02:39;;;;;;;9.35;5.32;;;2.30;99.90;;;;;;5103046;28;20040;-77
2021/01/05 06:05:24;;;;;;;8.50;4.50;;;2.30;99.90;;;;;;5112482;28;20064;-77
2021/01/05 06:07:50;;;;;;;8.60;4.78;;;2.30;99.90;;;;;;5107458;28;20059;-77
2021/01/05 06:10:15;;;;;;;8.07;5.07;;;2.40;99.90;;;;;;5111564;28;20613;-79
2021/01/05 06:12:41;;;;;;;10.88;4.78;;;2.40;99.90;;;;;;5094359;28;20040;-78
2021/01/05 06:15:08;;;;;;;9.60;5.60;;;2.40;99.90;;;;;;5095389;28;20040;-78
2021/01/05 06:17:33;;;;;;;8.68;4.78;;;2.40;99.90;;;;;;5093257;28;20111;-77
2021/01/05 06:19:59;;;;;;;10.65;5.25;;;2.40;99.90;;;;;;5112973;28;20134;-79
2021/01/05 06:22:25;;;;;;;10.13;4.72;;;2.40;99.90;;;;;;5098088;28;20432;-79
2021/01/05 06:24:50;;;;;;;7.97;4.80;;;2.40;99.90;;;;;;5096962;28;20036;-80
2021/01/05 06:27:16;;;;;;;11.60;5.28;;;2.40;99.90;;;;;;5113246;27;20407;-77
2021/01/05 06:29:42;;;;;;;;;;;2.40;99.90;;;;;;5113817;27;20051;-80
2021/01/05 06:32:08;;;;;;;11.45;5.35;;;2.40;99.90;;;;;;5095720;27;20361;-81
2021/01/05 06:34:34;;;;;;;10.55;5.40;;;2.60;99.90;;;;;;5105254;28;20043;-80
2021/01/05 06:37:05;;;;;;;12.13;5.00;;;2.50;99.90;;;;;;5102051;28;20468;-82
2021/01/05 06:39:31;;;;;;;8.88;5.97;;;2.50;99.90;;;;;;5099249;28;20097;-76
2021/01/05 06:41:57;;;;;;;8.50;4.63;;;2.50;99.90;;;;;;5103091;28;20043;-80
2021/01/05 06:44:22;;;;;;;8.00;5.28;;;2.50;99.90;;;;;;5102029;28;20364;-77
2021/01/05 06:46:52;;;;;;;10.13;5.00;;;2.50;99.90;;;;;;5093799;28;20042;-84
2021/01/05 06:49:17;;;;;;;8.15;4.82;;;2.50;99.90;;;;;;5093192;28;20040;-79
2021/01/05 06:51:43;;;;;;;8.63;4.75;;;3.00;99.90;;;;;;5100206;28;20052;-79
2021/01/05 06:54:09;;;;;;;9.13;5.03;;;2.60;99.90;;;;;;5095211;28;20674;-78
2021/01/05 06:56:56;;;;;;;8.48;5.15;;;2.50;99.90;;;;;;5091832;28;20091;-81
2021/01/05 06:59:23;;;;;;;9.23;4.38;;;2.50;99.90;;;;;;5107832;28;20405;-80
2021/01/05 07:01:58;;;;;;;7.85;4.80;;;2.50;99.90;;;;;;5093335;28;20405;-83
2021/01/05 07:04:24;;;;;;;9.20;5.00;;;2.50;99.90;;;;;;5106330;28;20032;-82
2021/01/05 07:06:51;;;;;;;10.70;5.35;;;2.50;99.90;;;;;;5109632;28;20389;-78
2021/01/05 07:09:18;;;;;;;9.95;4.95;;;2.90;99.90;;;;;;5116554;28;20047;-81
2021/01/05 07:11:45;;;;;;;7.72;4.30;;;2.50;99.90;;;;;;5117675;28;20124;-82
2021/01/05 07:14:16;;;;;;;11.25;4.70;;;2.50;99.90;;;;;;5099134;28;20047;-78
2021/01/05 07:16:43;;;;;;;9.35;4.40;;;2.50;99.90;;;;;;5109120;28;20100;-79
2021/01/05 07:19:09;;;;;;;8.95;5.07;;;2.50;99.90;;;;;;5114292;28;20047;-79
2021/01/05 07:21:35;;;;;;;8.75;4.68;;;2.50;99.90;;;;;;5103148;28;20125;-79
2021/01/05 07:24:01;;;;;;;;;;;2.50;99.90;;;;;;5092995;28;20108;-80
2021/01/05 07:26:27;;;;;;;8.85;4.20;;;2.50;99.90;;;;;;5091029;28;19924;-79
2021/01/05 07:28:52;;;;;;;8.68;4.43;;;2.70;99.90;;;;;;5088398;28;20498;-79
2021/01/05 07:31:19;;;;;;;5.63;3.97;;;2.50;99.90;;;;;;5107447;28;20070;-84
2021/01/05 07:33:45;;;;;;;6.30;4.05;;;2.50;99.90;;;;;;5102978;28;20540;-81
2021/01/05 07:36:23;;;;;;;5.03;3.80;;;2.50;99.90;;;;;;5102780;28;20036;-80
2021/01/05 07:38:48;;;;;;;6.85;4.10;;;2.50;99.90;;;;;;5099839;28;20081;-80
2021/01/05 07:41:14;;;;;;;5.93;3.53;;;2.50;99.90;;;;;;5109139;28;20035;-81
2021/01/05 07:43:40;;;;;;;9.48;4.13;;;2.00;99.90;;;;;;5096649;28;20047;-79
2021/01/05 07:46:06;;;;;;;11.52;4.43;;;2.50;99.90;;;;;;5094709;28;20042;-78
2021/01/05 07:48:32;;;;;;;6.53;3.88;;;2.50;99.90;;;;;;5099618;28;20412;-80
2021/01/05 07:50:58;;;;;;;5.60;3.70;;;2.50;99.90;;;;;;5094563;28;20035;-80
2021/01/05 07:53:23;;;;;;;5.88;4.05;;;2.50;99.90;;;;;;5096819;28;20114;-79
2021/01/05 07:55:49;;;;;;;8.82;4.85;;;2.50;99.90;;;;;;5102764;28;20036;-83
2021/01/05 07:58:15;;;;;;;5.50;3.97;;;2.50;99.90;;;;;;5097376;28;20085;-80
2021/01/05 08:00:41;;;;;;;8.20;4.05;;;2.50;99.90;;;;;;5116152;27;20094;-77
2021/01/05 08:03:10;;;;;;;6.40;3.78;;;2.50;99.90;;;;;;5110336;28;20472;-77
2021/01/05 08:05:36;;;;;;;4.90;3.40;;;2.50;99.90;;;;;;5113251;28;20472;-80
2021/01/05 08:08:02;;;;;;;5.40;3.80;;;2.50;99.90;;;;;;5101628;28;20055;-83
2021/01/05 08:10:33;;;;;;;6.03;3.70;;;2.50;99.90;;;;;;5097897;28;20481;-82
2021/01/05 08:13:00;;;;;;;8.18;3.83;;;2.40;99.90;;;;;;5095875;28;20058;-76
2021/01/05 08:15:29;;;;;;;4.75;3.65;;;2.50;99.90;;;;;;5094064;28;20043;-79
2021/01/05 08:17:55;;;;;;;5.18;3.67;;;2.50;99.90;;;;;;5100113;28;20047;-76
2021/01/05 08:20:24;;;;;;;6.10;3.38;;;2.40;99.90;;;;;;5092242;28;20749;-79
2021/01/05 08:22:50;;;;;;;8.18;4.22;;;2.40;99.90;;;;;;5103345;28;20035;-76
2021/01/05 08:25:17;;;;;;;6.80;3.90;;;2.40;99.90;;;;;;5088363;28;20529;-76
2021/01/05 08:27:50;;;;;;;6.78;3.97;;;2.40;99.90;;;;;;5096211;28;20091;-78
2021/01/05 08:30:21;;;;;;;6.32;3.83;;;2.80;99.90;;;;;;5102794;28;20096;-77
2021/01/05 08:32:48;;;;;;;7.10;3.75;;;2.40;99.90;;;;;;5105240;28;20122;-77
2021/01/05 08:35:16;;;;;;;9.43;4.75;;;2.40;99.90;;;;;;5115064;27;20485;-77
2021/01/05 08:37:42;;;;;;;6.15;3.72;;;2.40;99.90;;;;;;5093899;28;20046;-79
2021/01/05 08:40:18;;;;;;;8.05;4.25;;;2.40;99.90;;;;;;5094764;28;20043;-78
2021/01/05 08:42:44;;;;;;;6.78;4.13;;;2.40;99.90;;;;;;5092906;28;20609;-85
2021/01/05 08:45:17;;;;;;;10.07;4.43;;;2.40;99.90;;;;;;5099238;28;20032;-81
2021/01/05 08:47:45;;;;;;;6.28;3.83;;;2.40;99.90;;;;;;5097589;28;20055;-79
2021/01/05 08:50:16;;;;;;;6.78;3.65;;;2.30;99.90;;;;;;5095450;28;20046;-78
2021/01/05 08:52:42;;;;;;;4.57;3.30;;;2.30;99.90;;;;;;5090821;28;20039;-80
2021/01/05 08:55:08;;;;;;;5.78;3.63;;;2.30;99.90;;;;;;5106120;28;20036;-77
2021/01/05 08:57:34;;;;;;;5.15;3.50;;;2.30;99.90;;;;;;5093812;28;20048;-81
2021/01/05 09:00:01;;;;;;;6.68;3.30;;;2.50;99.90;;;;;;5104253;28;20093;-82
2021/01/05 09:02:27;;;;;;;7.38;3.67;;;2.30;99.90;;;;;;5098393;28;20067;-84
2021/01/05 09:04:53;;;;;;;6.43;3.80;;;2.30;99.90;;;;;;5092602;28;20036;-83
2021/01/05 09:07:20;;;;;;;7.82;4.00;;;2.30;99.90;;;;;;5101201;28;20093;-82
2021/01/05 09:09:46;;;;;;;6.55;3.47;;;2.30;99.90;;;;;;5090954;28;20093;-84
2021/01/05 09:12:12;;;;;;;6.80;3.50;;;2.30;99.90;;;;;;5098423;28;20044;-79
2021/01/05 09:14:38;;;;;;;5.32;3.83;;;2.30;99.90;;;;;;5085295;28;20048;-83
2021/01/05 09:17:05;;;;;;;10.00;5.35;;;2.30;99.90;;;;;;5084632;28;20038;-78
2021/01/05 09:19:31;;;;;;;7.90;4.25;;;2.30;99.90;;;;;;5083849;28;20040;-80
2021/01/05 09:21:57;;;;;;;5.72;3.83;;;2.30;99.90;;;;;;5083602;28;20113;-80
2021/01/05 09:24:23;;;;;;;7.93;4.28;;;2.30;99.90;;;;;;5095393;28;20115;-81
2021/01/05 09:26:55;;;;;;;7.80;3.90;;;2.30;99.90;;;;;;5097445;28;20039;-81
2021/01/05 09:29:26;;;;;;;8.23;4.85;;;2.30;99.90;;;;;;5090388;28;20064;-76
2021/01/05 09:31:54;;;;;;;6.97;4.60;;;2.40;99.90;;;;;;5098066;28;20848;-78
2021/01/05 09:34:23;;;;;;;7.18;4.05;;;2.40;99.90;;;;;;5095036;28;20047;-79
2021/01/05 09:36:51;;;;;;;8.15;4.65;;;2.40;99.90;;;;;;5104336;28;20396;-81
2021/01/05 09:39:19;;;;;;;6.45;4.22;;;2.40;99.90;;;;;;5101613;28;20036;-78
2021/01/05 09:41:55;;;;;;;7.00;4.22;;;2.40;99.90;;;;;;5089857;28;20036;-74
2021/01/05 09:44:21;;;;;;;8.32;4.95;;;2.40;99.90;;;;;;5097502;28;20139;-79
2021/01/05 09:46:51;;;;;;;7.72;4.43;;;2.50;99.90;;;;;;5095866;28;20110;-77
2021/01/05 09:49:18;;;;;;;7.18;4.75;;;2.50;99.90;;;;;;5095986;28;20089;-81
2021/01/05 09:51:44;;;;;;;11.63;4.70;;;2.50;99.90;;;;;;5102999;28;20107;-76
2021/01/05 09:54:10;;;;;;;7.50;4.15;;;2.50;99.90;;;;;;5097785;28;20422;-80
2021/01/05 09:56:36;;;;;;;7.75;4.32;;;2.50;99.90;;;;;;5094439;28;20044;-80
2021/01/05 09:59:02;;;;;;;7.28;4.25;;;2.50;99.90;;;;;;5096952;28;20035;-84
2021/01/05 10:01:31;;;;;;;8.80;4.90;;;2.50;99.90;;;;;;5098501;28;20124;-78
2021/01/05 10:03:57;;;;;;;8.13;4.50;;;2.60;99.90;;;;;;5103279;28;20094;-81
2021/01/05 10:06:32;;;;;;;10.35;4.75;;;2.60;99.90;;;;;;5099054;28;20461;-78
2021/01/05 10:08:58;;;;;;;8.68;4.40;;;2.60;99.90;;;;;;5103308;28;20412;-78
2021/01/05 10:11:30;;;;;;;7.28;4.93;;;3.40;99.90;;;;;;5101971;27;20100;-80
2021/01/05 10:13:56;;;;;;;7.05;4.40;;;2.60;99.90;;;;;;5096693;28;20111;-79
2021/01/05 10:16:22;;;;;;;9.02;4.95;;;2.70;99.90;;;;;;5099450;28;20124;-82
2021/01/05 10:18:48;;;;;;;8.75;4.32;;;2.70;99.90;;;;;;5102194;28;20124;-75
2021/01/05 10:21:17;;;;;;;7.68;5.40;;;2.70;99.90;;;;;;5091315;28;20031;-82
2021/01/05 10:23:44;;;;;;;9.85;4.80;;;2.70;99.90;;;;;;5100799;28;20086;-79
2021/01/05 10:26:11;;;;;;;7.30;4.22;;;2.80;99.90;;;;;;5107077;28;20035;-79
2021/01/05 10:28:38;;;;;;;10.55;5.32;;;2.70;99.90;;;;;;5099381;28;20046;-78
2021/01/05 10:31:04;;;;;;;8.48;4.72;;;3.20;99.90;;;;;;5098375;28;20404;-79
2021/01/05 10:33:30;;;;;;;7.25;4.60;;;2.80;99.90;;;;;;5100456;28;20544;-77
2021/01/05 10:35:56;;;;;;;8.73;4.72;;;3.00;99.90;;;;;;5091176;28;20495;-77
2021/01/05 10:38:22;;;;;;;7.70;4.85;;;2.80;99.90;;;;;;5103764;28;20032;-82
2021/01/05 10:40:51;;;;;;;7.93;4.68;;;2.80;99.90;;;;;;5084583;28;20164;-78
2021/01/05 10:43:17;;;;;;;6.82;4.32;;;2.80;99.90;;;;;;5100269;28;20063;-80
2021/01/05 10:45:43;;;;;;;;;;;2.80;99.90;;;;;;5098825;28;20040;-82
2021/01/05 10:48:09;;;;;;;10.23;4.93;;;2.80;99.90;;;;;;5105126;28;19928;-82
2021/01/05 10:50:35;;;;;;;9.48;5.25;;;2.80;99.90;;;;;;5112371;28;20115;-83
2021/01/05 10:53:02;;;;;;;7.93;4.75;;;2.80;99.90;;;;;;5097493;28;20059;-81
2021/01/05 10:55:27;;;;;;;9.52;5.05;;;2.80;99.90;;;;;;5093189;28;20473;-79
2021/01/05 10:57:54;;;;;;;8.63;4.80;;;2.80;99.90;;;;;;5096387;28;20040;-77
2021/01/05 11:00:21;;;;;;;5.75;4.20;;;2.80;99.90;;;;;;5111441;28;20047;-80
2021/01/05 11:02:47;;;;;;;8.68;4.75;;;2.80;99.90;;;;;;5113030;28;20040;-81
2021/01/05 11:05:15;;;;;;;6.93;4.20;;;2.80;99.90;;;;;;5094260;28;20119;-80
2021/01/05 11:07:43;;;;;;;7.25;4.60;;;2.80;99.90;;;;;;5098077;28;20044;-79
2021/01/05 11:10:10;;;;;;;5.72;4.35;;;2.90;99.90;;;;;;5107738;28;20082;-83
2021/01/05 11:12:36;;;;;;;7.80;4.78;;;2.90;99.90;;;;;;5086199;28;20036;-77
2021/01/05 11:15:06;;;;;;;6.35;4.10;;;3.00;99.90;;;;;;5097449;28;20067;-78
2021/01/05 11:17:32;;;;;;;5.28;3.60;;;2.90;99.90;;;;;;5104295;28;20529;-80
2021/01/05 11:19:57;;;;;;;7.95;4.20;;;2.90;99.90;;;;;;5101769;28;20119;-77
2021/01/05 11:22:23;;;;;;;7.90;3.80;;;2.90;99.90;;;;;;5108750;27;20032;-76
2021/01/05 11:24:49;;;;;;;7.00;4.60;;;2.90;99.90;;;;;;5105494;27;20070;-79
2021/01/05 11:27:18;;;;;;;7.55;3.55;;;2.90;99.90;;;;;;5096350;28;20040;-80
2021/01/05 11:29:45;;;;;;;6.43;3.88;;;2.90;99.90;;;;;;5095493;28;20039;-81
2021/01/05 11:32:15;;;;;;;5.93;3.92;;;2.90;99.90;;;;;;5104612;28;20055;-79
2021/01/05 11:34:42;;;;;;;7.75;3.83;;;2.90;99.90;;;;;;5108609;28;20040;-76
2021/01/05 11:37:18;;;;;;;5.78;3.70;;;2.90;99.90;;;;;;5110379;28;20044;-80
2021/01/05 11:39:46;;;;;;;6.55;3.60;;;2.90;99.90;;;;;;5117243;28;20087;-78
2021/01/05 11:42:16;;;;;;;11.48;4.35;;;2.90;99.90;;;;;;5111178;28;20184;-76
2021/01/05 11:44:44;;;;;;;7.18;4.13;;;2.90;99.90;;;;;;5098671;28;20032;-76
2021/01/05 11:47:12;;;;;;;6.05;3.50;;;2.90;99.90;;;;;;5110196;28;20031;-76
2021/01/05 11:49:38;;;;;;;5.35;3.65;;;2.90;99.90;;;;;;5090045;28;20039;-77
2021/01/05 11:52:04;;;;;;;5.75;3.72;;;3.00;99.90;;;;;;5093112;28;20404;-76
2021/01/05 11:54:29;;;;;;;6.40;3.88;;;2.90;99.90;;;;;;5093577;28;20043;-77
2021/01/05 11:56:56;;;;;;;6.40;3.53;;;2.90;99.90;;;;;;5110099;27;20041;-78
2021/01/05 11:59:22;;;;;;;6.15;3.50;;;2.90;99.90;;;;;;5099975;28;20067;-77
2021/01/05 12:01:48;;;;;;;5.95;3.50;;;2.90;99.90;;;;;;5113177;27;20393;-78
2021/01/05 12:04:14;;;;;;;;;;;2.90;99.90;;;;;;5103173;28;20044;-75
2021/01/05 12:06:45;;;;;;;5.65;3.38;;;2.90;99.90;;;;;;5095366;28;20015;-76
2021/01/05 12:09:15;;;;;;;8.27;4.53;;;2.90;99.90;;;;;;5090398;28;20101;-77
2021/01/05 12:11:41;;;;;;;4.97;3.33;;;3.00;99.90;;;;;;5095004;28;20085;-79
2021/01/05 12:14:07;;;;;;;5.70;3.88;;;3.00;99.90;;;;;;5096657;28;20040;-76
2021/01/05 12:16:36;;;;;;;7.10;3.95;;;2.90;99.90;;;;;;5095536;28;20110;-80
2021/01/05 12:19:05;;;;;;;9.50;4.45;;;3.00;99.90;;;;;;5102872;28;20040;-81
2021/01/05 12:21:36;;;;;;;8.57;4.18;;;3.00;99.90;;;;;;5096055;28;20155;-78
2021/01/05 12:24:04;;;;;;;7.03;4.28;;;3.00;99.90;;;;;;5096710;28;20586;-80
2021/01/05 12:26:34;;;;;;;6.85;4.18;;;2.90;99.90;;;;;;5089289;28;20448;-74
2021/01/05 12:29:03;;;;;;;7.32;4.13;;;3.00;99.90;;;;;;5092794;28;20060;-81
2021/01/05 12:31:29;;;;;;;12.30;4.03;;;3.00;99.90;;;;;;5097746;28;20036;-75
2021/01/05 12:33:55;;;;;;;5.88;3.92;;;3.00;99.90;;;;;;5062939;28;20058;-79
2021/01/05 12:36:28;;;;;;;;;;;3.00;99.90;;;;;;5094717;28;20035;-81
2021/01/05 12:38:56;;;;;;;6.88;4.25;;;3.00;99.90;;;;;;5096544;28;20030;-78
2021/01/05 12:41:31;;;;;;;5.70;3.63;;;3.00;99.90;;;;;;5097364;28;20469;-79
2021/01/05 12:43:57;;;;;;;7.40;4.07;;;3.00;99.90;;;;;;5090654;28;20127;-80
2021/01/05 12:46:26;;;;;;;;;;;3.00;99.90;;;;;;5096117;28;20043;-81
2021/01/05 12:48:52;;;;;;;7.47;3.92;;;2.90;99.90;;;;;;5093331;28;19922;-77
2021/01/05 12:51:28;;;;;;;;;;;3.00;99.90;;;;;;5096670;28;20031;-83
2021/01/05 12:53:54;;;;;;;5.60;3.70;;;2.90;99.90;;;;;;5100316;27;19952;-80
2021/01/05 12:56:20;;;;;;;6.93;4.15;;;2.90;99.90;;;;;;5103885;28;20643;-80
2021/01/05 12:58:46;;;;;;;6.75;3.95;;;2.90;99.90;;;;;;5103367;28;20518;-78
2021/01/05 13:01:14;;;;;;;8.60;4.30;;;2.90;99.90;;;;;;5092350;28;20536;-81
2021/01/05 13:03:42;;;;;;;8.52;4.07;;;2.90;99.90;;;;;;5112672;28;20047;-83
2021/01/05 13:06:09;;;;;;;7.82;4.53;;;2.90;99.90;;;;;;5089492;28;20036;-76
2021/01/05 13:08:35;;;;;;;8.90;4.45;;;2.90;99.90;;;;;;5088862;28;20060;-79
2021/01/05 13:11:22;;;;;;;8.65;4.65;;;2.90;99.90;;;;;;5104849;28;20036;-76
2021/01/05 13:13:49;;;;;;;9.10;5.22;;;2.90;99.90;;;;;;5093460;28;20111;-77
2021/01/05 13:16:15;;;;;;;8.98;4.85;;;2.90;99.90;;;;;;5094753;28;20044;-77
2021/01/05 13:18:41;;;;;;;7.50;5.20;;;2.90;99.90;;;;;;5095530;28;20090;-77